Time;durP1;ratioP1;P1;durP2;ratioP2;P2;SDS_P1;SDS_P2;PMS_P1;PMS_P2;Temp;Humidity;BMP_temperature;BMP_pressure;BME280_temperature;BME280_humidity;BME280_pressure;Samples;Min_cycle;Max_cycle;Signal;HPM_P1;HPM_P2
2021/11/27 00:00:59;;;;;;;11.18;6.92;;;;;;;7.47;68.33;98959.20;1718205;81;21068;-71
2021/11/27 00:03:26;;;;;;;10.43;6.05;;;;;;;7.53;68.31;98953.89;1734815;80;21071;-70
2021/11/27 00:05:54;;;;;;;9.73;6.47;;;;;;;7.59;68.33;98952.03;1701485;83;21034;-71
2021/11/27 00:08:22;;;;;;;13.95;6.87;;;;;;;7.59;68.41;98945.00;1724382;80;21780;-70
2021/11/27 00:10:52;;;;;;;11.30;6.55;;;;;;;7.57;68.67;98946.12;1725027;80;21083;-71
2021/11/27 00:13:19;;;;;;;11.97;6.72;;;;;;;7.55;68.66;98933.17;1734157;81;21073;-71
2021/11/27 00:15:47;;;;;;;12.85;7.72;;;;;;;7.52;68.67;98926.90;1703718;82;21063;-71
2021/11/27 00:18:16;;;;;;;16.05;8.13;;;;;;;7.46;68.78;98928.75;1746802;81;21036;-70
2021/11/27 00:20:50;;;;;;;14.15;6.92;;;;;;;7.43;68.84;98921.17;1726887;82;21055;-70
2021/11/27 00:23:16;;;;;;;10.93;6.85;;;;;;;7.41;68.88;98925.73;1736136;80;21011;-71
2021/11/27 00:25:43;;;;;;;12.80;6.85;;;;;;;7.44;68.90;98914.49;1747581;80;21130;-71
2021/11/27 00:28:10;;;;;;;15.20;7.70;;;;;;;7.48;69.05;98905.06;1706224;82;21074;-71
2021/11/27 00:30:39;;;;;;;14.33;8.00;;;;;;;7.48;69.01;98903.29;1711881;82;21035;-70
2021/11/27 00:33:06;;;;;;;12.23;7.37;;;;;;;7.44;69.16;98903.20;1685969;82;21051;-71
2021/11/27 00:35:33;;;;;;;14.33;7.45;;;;;;;7.41;69.41;98887.78;1690609;82;21598;-71
2021/11/27 00:37:59;;;;;;;11.75;7.53;;;;;;;7.38;69.49;98873.66;1748050;80;21013;-69
2021/11/27 00:40:26;;;;;;;15.30;8.88;;;;;;;7.34;69.56;98861.84;1727782;81;21327;-70
2021/11/27 00:42:54;;;;;;;13.68;8.18;;;;;;;7.31;69.76;98877.81;1739253;80;21042;-70
2021/11/27 00:45:23;;;;;;;14.18;7.92;;;;;;;7.34;69.82;98870.99;1723611;81;21051;-70
2021/11/27 00:47:52;;;;;;;14.63;8.30;;;;;;;7.41;69.66;98823.20;1741694;81;21021;-70
2021/11/27 00:50:22;;;;;;;15.75;9.05;;;;;;;7.44;69.62;98839.91;1745264;80;21877;-70
2021/11/27 00:52:49;;;;;;;14.98;8.95;;;;;;;7.44;69.68;98831.23;1721893;81;21475;-70
2021/11/27 00:55:16;;;;;;;13.45;8.85;;;;;;;7.42;69.91;98837.92;1745543;80;21056;-70
2021/11/27 00:57:43;;;;;;;18.23;9.05;;;;;;;7.35;70.07;98827.68;1745625;82;21083;-70
2021/11/27 01:00:13;;;;;;;17.50;8.98;;;;;;;7.30;70.36;98831.70;1734964;81;21054;-70
2021/11/27 01:02:41;;;;;;;16.40;8.93;;;;;;;7.26;70.41;98821.97;1708209;82;21567;-71
2021/11/27 01:05:09;;;;;;;14.28;8.25;;;;;;;7.28;70.51;98817.44;1657534;82;21129;-70
2021/11/27 01:07:38;;;;;;;15.30;8.60;;;;;;;7.37;70.25;98806.61;1744083;81;21089;-71
2021/11/27 01:10:06;;;;;;;13.98;8.73;;;;;;;7.42;70.01;98804.39;1742116;81;21017;-71
2021/11/27 01:12:34;;;;;;;17.50;9.30;;;;;;;7.43;70.01;98799.02;1744334;80;21021;-71
2021/11/27 01:15:01;;;;;;;19.82;8.95;;;;;;;7.42;70.01;98790.00;1711205;82;21126;-71
2021/11/27 01:17:27;;;;;;;16.23;8.85;;;;;;;7.40;70.05;98786.22;1702773;82;21110;-70
2021/11/27 01:19:54;;;;;;;17.27;9.83;;;;;;;7.39;70.08;98781.12;1696829;82;21085;-71
2021/11/27 01:22:22;;;;;;;16.20;9.30;;;;;;;7.37;70.17;98768.17;1678446;83;21030;-71
2021/11/27 01:24:48;;;;;;;15.05;8.93;;;;;;;7.32;70.15;98763.85;1699530;83;21083;-70
2021/11/27 01:27:15;;;;;;;14.65;9.45;;;;;;;7.31;70.30;98755.64;1735931;80;21770;-72
2021/11/27 01:42:31;;;;;;;15.20;8.20;;;;;;;8.77;67.10;98721.77;1833300;76;22737;-70
2021/11/27 01:44:58;;;;;;;12.82;8.10;;;;;;;8.82;66.23;98726.06;1804596;77;21103;-71
2021/11/27 01:47:25;;;;;;;14.87;8.63;;;;;;;8.65;66.55;98716.75;1805064;78;21127;-69
2021/11/27 01:49:53;;;;;;;14.83;8.98;;;;;;;8.48;66.85;98713.66;1777638;79;21085;-66
2021/11/27 01:52:19;;;;;;;13.15;8.08;;;;;;;8.30;67.23;98706.57;1805858;78;20966;-68
2021/11/27 01:54:46;;;;;;;12.28;8.28;;;;;;;8.16;67.56;98704.48;1776007;78;20998;-70
2021/11/27 01:57:13;;;;;;;16.12;8.35;;;;;;;8.05;67.88;98688.97;1794078;77;21116;-67
2021/11/27 01:59:42;;;;;;;18.12;9.38;;;;;;;7.93;68.18;98694.91;1806316;78;21730;-67
2021/11/27 02:02:12;;;;;;;15.83;9.75;;;;;;;7.84;68.43;98684.84;1791794;77;20954;-70
2021/11/27 02:04:40;;;;;;;15.30;8.48;;;;;;;7.79;68.58;98686.58;1800446;77;21086;-68
2021/11/27 02:07:06;;;;;;;14.50;8.45;;;;;;;7.76;68.85;98682.94;1784099;79;21093;-68
2021/11/27 02:09:35;;;;;;;15.83;9.48;;;;;;;7.72;69.19;98676.85;1804244;78;21046;-67
2021/11/27 02:12:06;;;;;;;15.45;8.85;;;;;;;7.66;69.36;98670.39;1808998;77;21136;-68
2021/11/27 02:14:34;;;;;;;14.10;8.63;;;;;;;7.58;69.62;98669.83;1801437;78;21003;-68
2021/11/27 02:17:03;;;;;;;12.85;7.58;;;;;;;7.52;69.94;98674.33;1783178;79;21070;-67
2021/11/27 02:19:31;;;;;;;11.88;7.37;;;;;;;7.48;70.14;98670.36;1799219;77;21141;-68
2021/11/27 02:21:58;;;;;;;14.60;8.23;;;;;;;7.43;70.43;98656.86;1799178;79;21525;-68
2021/11/27 02:24:26;;;;;;;12.00;7.03;;;;;;;7.42;70.63;98652.61;1802608;78;21123;-69
2021/11/27 02:26:54;;;;;;;11.28;6.25;;;;;;;7.47;70.64;98649.08;1797465;79;21536;-69
2021/11/27 02:29:25;;;;;;;13.28;7.40;;;;;;;7.52;70.85;98647.34;1803130;78;21104;-69
2021/11/27 02:31:53;;;;;;;10.55;5.95;;;;;;;7.54;71.04;98642.28;1775286;79;20996;-68
2021/11/27 02:34:21;;;;;;;10.08;6.62;;;;;;;7.52;71.27;98636.37;1776958;78;21561;-68
2021/11/27 02:36:57;;;;;;;11.68;6.12;;;;;;;7.50;71.48;98636.16;1801723;77;21689;-67
2021/11/27 02:39:24;;;;;;;10.95;5.90;;;;;;;7.47;71.67;98629.94;1797457;77;21536;-71
2021/11/27 02:41:53;;;;;;;12.58;6.30;;;;;;;7.42;71.77;98617.28;1775846;79;21117;-69
2021/11/27 02:44:23;;;;;;;12.13;6.05;;;;;;;7.43;72.02;98614.52;1791524;77;21502;-68
2021/11/27 02:46:50;;;;;;;9.68;4.95;;;;;;;7.53;71.90;98613.63;1747512;81;21050;-69
2021/11/27 02:49:17;;;;;;;8.63;4.92;;;;;;;7.61;72.05;98618.47;1741672;81;21844;-68
2021/11/27 02:51:45;;;;;;;8.53;5.10;;;;;;;7.67;72.11;98610.53;1718446;82;21031;-72
2021/11/27 02:54:12;;;;;;;8.15;4.20;;;;;;;7.70;72.23;98606.31;1694777;82;21017;-70
2021/11/27 02:56:38;;;;;;;8.85;5.12;;;;;;;7.72;72.40;98594.38;1736281;79;21086;-67
2021/11/27 02:59:15;;;;;;;9.83;5.08;;;;;;;7.74;72.42;98591.13;1712821;82;21084;-68
2021/11/27 03:01:44;;;;;;;7.95;4.25;;;;;;;7.73;72.30;98586.84;1712229;81;21108;-72
2021/11/27 03:04:11;;;;;;;7.65;3.65;;;;;;;7.77;72.28;98584.29;1702262;82;21103;-68
2021/11/27 03:06:41;;;;;;;10.90;4.45;;;;;;;7.84;72.25;98581.41;1721120;82;21629;-67
2021/11/27 03:09:08;;;;;;;7.20;3.58;;;;;;;7.89;72.33;98583.08;1710442;82;21114;-68
2021/11/27 03:11:34;;;;;;;8.18;4.25;;;;;;;7.91;72.42;98565.41;1724008;81;21570;-64
2021/11/27 03:14:01;;;;;;;8.98;4.05;;;;;;;7.93;72.63;98570.02;1711783;82;21985;-68
2021/11/27 03:16:32;;;;;;;8.98;4.83;;;;;;;7.91;72.83;98564.11;1717414;82;21039;-65
2021/11/27 03:18:59;;;;;;;11.25;4.50;;;;;;;7.90;72.95;98565.10;1705677;81;21085;-68
2021/11/27 03:21:26;;;;;;;8.68;4.12;;;;;;;7.92;73.05;98555.29;1735259;80;21017;-67
2021/11/27 03:23:53;;;;;;;9.43;4.40;;;;;;;7.96;73.04;98554.00;1787503;78;21134;-67
2021/11/27 03:26:20;;;;;;;7.42;3.22;;;;;;;8.06;72.86;98555.23;1780116;79;21569;-66
2021/11/27 03:28:47;;;;;;;6.92;3.42;;;;;;;8.12;72.94;98560.34;1775726;78;21558;-66
2021/11/27 03:31:14;;;;;;;8.30;4.10;;;;;;;8.18;72.95;98551.88;1773196;79;21022;-66
2021/11/27 03:33:41;;;;;;;8.60;3.20;;;;;;;8.24;73.03;98559.14;1784296;78;21159;-67
2021/11/27 03:36:08;;;;;;;8.18;3.85;;;;;;;8.27;73.10;98553.60;1794040;78;21000;-66
2021/11/27 03:38:35;;;;;;;9.93;4.00;;;;;;;8.29;73.16;98553.45;1796563;79;21180;-66
2021/11/27 03:41:03;;;;;;;11.88;4.50;;;;;;;8.30;73.21;98544.59;1761658;79;21747;-67
2021/11/27 03:43:31;;;;;;;9.25;3.37;;;;;;;8.29;73.17;98546.41;1786325;79;21339;-68
2021/11/27 03:45:59;;;;;;;6.70;2.98;;;;;;;8.33;73.17;98550.84;1789487;78;21046;-65
2021/11/27 03:48:30;;;;;;;9.48;3.70;;;;;;;8.40;73.05;98551.05;1791237;79;21462;-67
2021/11/27 03:51:00;;;;;;;6.80;2.65;;;;;;;8.48;73.08;98547.21;1767573;78;22480;-67
2021/11/27 03:53:31;;;;;;;6.95;2.90;;;;;;;8.53;73.11;98540.52;1787885;77;21041;-66
2021/11/27 03:56:00;;;;;;;7.12;3.17;;;;;;;8.53;73.04;98539.70;1795559;78;21497;-65
2021/11/27 03:58:27;;;;;;;5.80;2.52;;;;;;;8.51;73.16;98530.69;1789516;78;20996;-67
2021/11/27 04:00:55;;;;;;;7.90;2.58;;;;;;;8.47;73.12;98535.91;1793568;78;21098;-66
2021/11/27 04:03:22;;;;;;;7.12;1.77;;;;;;;8.48;73.15;98534.92;1764118;79;21056;-66
2021/11/27 04:05:55;;;;;;;5.92;1.98;;;;;;;8.56;73.04;98540.71;1774686;78;21038;-66
2021/11/27 04:08:24;;;;;;;6.95;1.77;;;;;;;8.62;73.08;98527.45;1773362;79;21094;-68
2021/11/27 04:10:51;;;;;;;3.47;1.27;;;;;;;8.66;73.05;98525.69;1786772;78;21079;-66
2021/11/27 04:13:18;;;;;;;3.98;1.25;;;;;;;8.67;73.17;98519.95;1788596;78;22065;-64
2021/11/27 04:15:46;;;;;;;3.12;1.05;;;;;;;8.68;73.17;98512.42;1787881;78;21167;-65
2021/11/27 04:18:14;;;;;;;3.30;1.07;;;;;;;8.68;73.25;98505.87;1770834;79;21054;-62
2021/11/27 04:20:41;;;;;;;2.98;1.02;;;;;;;8.68;73.24;98515.86;1795521;78;21419;-64
2021/11/27 04:23:08;;;;;;;5.17;1.32;;;;;;;8.73;73.13;98520.14;1795324;77;21079;-65
2021/11/27 04:25:35;;;;;;;3.30;1.15;;;;;;;8.82;73.06;98521.00;1786933;78;21066;-67
2021/11/27 04:28:02;;;;;;;2.10;0.90;;;;;;;8.88;72.92;98527.44;1779213;79;21096;-66
2021/11/27 04:30:30;;;;;;;3.25;1.10;;;;;;;8.90;72.94;98526.78;1778936;78;21064;-65
2021/11/27 04:32:57;;;;;;;3.05;1.40;;;;;;;8.89;73.06;98525.97;1787352;78;21043;-65
2021/11/27 04:35:26;;;;;;;2.62;0.90;;;;;;;8.90;73.13;98522.34;1794429;79;21594;-67
2021/11/27 04:37:54;;;;;;;3.60;0.98;;;;;;;8.92;72.97;98525.62;1789369;79;21105;-65
2021/11/27 04:40:20;;;;;;;3.52;1.17;;;;;;;8.89;72.87;98527.28;1779153;78;21467;-63
2021/11/27 04:42:47;;;;;;;3.42;1.27;;;;;;;8.96;72.78;98526.62;1769906;78;21082;-68
2021/11/27 04:45:14;;;;;;;2.77;1.02;;;;;;;8.99;72.84;98538.94;1760825;78;21161;-66
2021/11/27 04:47:42;;;;;;;4.05;1.57;;;;;;;9.02;72.89;98532.56;1745613;79;20991;-68
2021/11/27 04:50:11;;;;;;;2.77;1.20;;;;;;;9.02;72.94;98535.19;1763736;79;21075;-67
2021/11/27 04:52:39;;;;;;;2.98;1.15;;;;;;;8.99;73.05;98530.25;1752752;79;21104;-68
2021/11/27 04:55:08;;;;;;;2.70;0.90;;;;;;;8.95;73.06;98521.87;1756432;79;21285;-59
2021/11/27 04:57:36;;;;;;;4.72;1.42;;;;;;;8.98;73.12;98536.00;1749233;79;21645;-68
2021/11/27 05:00:15;;;;;;;3.70;1.20;;;;;;;9.04;72.94;98534.53;1750889;79;21126;-75
2021/11/27 05:02:43;;;;;;;3.80;1.20;;;;;;;9.06;72.96;98538.66;1751415;79;22164;-69
2021/11/27 05:05:10;;;;;;;4.78;1.32;;;;;;;9.06;73.18;98542.59;1756459;79;21112;-70
2021/11/27 05:07:37;;;;;;;4.62;1.62;;;;;;;9.03;73.32;98538.97;1760462;79;21059;-69
2021/11/27 05:10:05;;;;;;;3.75;1.70;;;;;;;9.02;73.47;98541.75;1755575;79;21082;-68
2021/11/27 05:12:34;;;;;;;4.50;1.65;;;;;;;9.02;73.61;98543.88;1755451;79;21385;-60
2021/11/27 05:15:00;;;;;;;3.45;1.45;;;;;;;9.07;73.60;98548.16;1754907;79;21110;-72
2021/11/27 05:17:28;;;;;;;4.20;1.77;;;;;;;9.17;73.39;98545.91;1755425;79;21060;-61
2021/11/27 05:19:56;;;;;;;4.05;1.55;;;;;;;9.24;73.31;98556.09;1742753;79;21647;-71
2021/11/27 05:22:24;;;;;;;4.40;1.65;;;;;;;9.29;73.33;98552.49;1756266;79;21152;-72
2021/11/27 05:24:51;;;;;;;4.87;2.08;;;;;;;9.35;73.35;98550.55;1751777;79;21059;-71
2021/11/27 05:27:18;;;;;;;3.98;1.75;;;;;;;9.38;73.33;98549.39;1754560;79;21414;-70
2021/11/27 05:29:50;;;;;;;4.33;1.80;;;;;;;9.39;73.22;98543.17;1749084;79;21840;-67
2021/11/27 05:32:26;;;;;;;4.72;2.02;;;;;;;9.33;73.11;98547.27;1754685;79;21087;-69
2021/11/27 05:34:51;;;;;;;4.28;1.65;;;;;;;9.33;73.27;98556.46;1755979;79;21141;-70
2021/11/27 05:37:18;;;;;;;4.62;1.70;;;;;;;9.37;73.25;98549.08;1758902;79;21541;-72
2021/11/27 05:39:45;;;;;;;4.20;1.45;;;;;;;9.46;73.03;98550.73;1760369;79;21592;-74
2021/11/27 05:42:13;;;;;;;3.75;1.77;;;;;;;9.52;72.86;98559.29;1766352;78;21940;-72
2021/11/27 05:44:43;;;;;;;4.65;1.50;;;;;;;9.57;72.81;98558.81;1751713;79;21035;-60
2021/11/27 05:47:09;;;;;;;4.00;1.82;;;;;;;9.60;72.78;98554.53;1781683;79;21101;-66
2021/11/27 05:49:36;;;;;;;4.58;1.98;;;;;;;9.58;72.88;98553.87;1761998;79;21056;-67
2021/11/27 05:52:14;;;;;;;5.37;2.37;;;;;;;9.54;72.84;98551.25;1784446;79;21096;-68
2021/11/27 05:54:40;;;;;;;5.47;2.58;;;;;;;9.47;72.94;98549.27;1787852;79;21913;-71
2021/11/27 05:57:07;;;;;;;5.00;2.00;;;;;;;9.45;73.13;98553.86;1783248;78;21007;-67
2021/11/27 05:59:35;;;;;;;4.40;2.00;;;;;;;9.50;73.15;98557.33;1760051;79;21601;-72
2021/11/27 06:02:03;;;;;;;5.70;2.40;;;;;;;9.61;72.99;98557.50;1774700;78;21035;-72
2021/11/27 06:04:30;;;;;;;5.40;2.37;;;;;;;9.69;72.90;98561.45;1782220;78;21128;-72
2021/11/27 06:06:57;;;;;;;6.40;3.02;;;;;;;9.78;72.89;98557.84;1778869;78;21130;-72
2021/11/27 06:09:25;;;;;;;5.37;2.83;;;;;;;9.86;72.87;98559.16;1774882;79;21059;-66
2021/11/27 06:11:52;;;;;;;6.00;2.87;;;;;;;9.89;72.83;98563.28;1778346;78;21566;-72
2021/11/27 06:14:21;;;;;;;7.10;3.20;;;;;;;9.88;72.65;98560.31;1782608;78;21646;-70
2021/11/27 06:16:47;;;;;;;7.28;3.47;;;;;;;9.85;72.63;98573.77;1780998;79;21611;-70
2021/11/27 06:19:15;;;;;;;6.17;3.20;;;;;;;9.83;72.76;98566.08;1776860;78;21124;-69
2021/11/27 06:21:41;;;;;;;7.03;3.25;;;;;;;9.86;72.64;98567.05;1780218;78;21369;-74
2021/11/27 06:24:08;;;;;;;7.95;3.92;;;;;;;9.95;72.52;98562.64;1761903;79;21114;-74
2021/11/27 06:26:36;;;;;;;6.33;3.10;;;;;;;10.03;72.44;98569.69;1781991;78;21071;-68
2021/11/27 06:29:03;;;;;;;7.95;4.55;;;;;;;10.10;72.34;98564.60;1767268;79;21106;-70
2021/11/27 06:31:31;;;;;;;8.15;4.37;;;;;;;10.16;72.42;98567.39;1764198;79;21603;-72
2021/11/27 06:33:59;;;;;;;10.48;4.30;;;;;;;10.16;72.37;98567.39;1776145;78;22566;-73
2021/11/27 06:36:26;;;;;;;8.45;4.35;;;;;;;10.15;72.37;98569.68;1757635;79;21602;-71
2021/11/27 06:38:55;;;;;;;7.45;4.50;;;;;;;10.11;72.45;98566.25;1778531;78;22169;-73
2021/11/27 06:41:22;;;;;;;7.78;4.80;;;;;;;10.10;72.48;98568.04;1781356;79;21058;-69
2021/11/27 06:43:50;;;;;;;7.00;3.98;;;;;;;10.13;72.49;98570.34;1779124;78;22494;-73
2021/11/27 06:46:21;;;;;;;9.18;6.45;;;;;;;10.21;72.32;98573.48;1784915;78;21070;-71
2021/11/27 06:48:48;;;;;;;7.87;4.87;;;;;;;10.28;72.31;98583.65;1785274;79;21106;-70
2021/11/27 06:51:15;;;;;;;9.40;4.55;;;;;;;10.30;72.32;98584.30;1788410;77;21047;-72
2021/11/27 06:53:42;;;;;;;10.98;5.33;;;;;;;10.29;72.46;98587.94;1795253;78;21058;-72
2021/11/27 06:56:08;;;;;;;10.38;5.55;;;;;;;10.28;72.54;98593.36;1786804;77;21470;-61
2021/11/27 06:58:35;;;;;;;11.38;5.40;;;;;;;10.25;72.64;98593.67;1790453;77;21098;-63
2021/11/27 07:01:09;;;;;;;9.20;5.95;;;;;;;10.22;72.71;98590.87;1785736;78;21621;-66
2021/11/27 07:03:54;;;;;;;12.65;6.90;;;;;;;10.24;72.78;98590.23;1788246;78;21030;-66
2021/11/27 07:06:22;;;;;;;11.22;6.05;;;;;;;10.32;72.67;98596.00;1711470;78;21102;-61
2021/11/27 07:08:50;;;;;;;9.88;6.03;;;;;;;10.36;72.60;98592.07;1785213;77;21171;-59
2021/11/27 07:11:30;;;;;;;10.85;6.58;;;;;;;10.39;72.51;98593.06;1737764;79;21077;-63
2021/11/27 07:13:57;;;;;;;9.55;6.33;;;;;;;10.36;72.61;98591.56;1797709;78;21078;-71
2021/11/27 07:16:25;;;;;;;10.23;5.85;;;;;;;10.35;72.59;98591.23;1786454;78;21147;-65
2021/11/27 07:18:51;;;;;;;10.93;5.72;;;;;;;10.35;72.54;98596.99;1791503;78;21083;-66
2021/11/27 07:21:18;;;;;;;10.28;5.62;;;;;;;10.36;72.50;98595.52;1792659;78;21747;-66
2021/11/27 07:23:44;;;;;;;12.07;6.67;;;;;;;10.46;72.31;98594.53;1776244;79;21054;-67
2021/11/27 07:26:11;;;;;;;10.58;6.90;;;;;;;10.54;72.25;98605.86;1769338;79;21558;-68
2021/11/27 07:28:39;;;;;;;12.78;7.05;;;;;;;10.59;72.09;98601.39;1787129;77;21089;-68
2021/11/27 07:31:06;;;;;;;12.28;7.35;;;;;;;10.60;72.03;98604.36;1772244;79;21050;-64
2021/11/27 07:33:32;;;;;;;13.75;7.97;;;;;;;10.60;72.01;98605.17;1783266;77;21302;-64
2021/11/27 07:35:59;;;;;;;11.88;7.20;;;;;;;10.58;71.88;98599.27;1766150;79;21703;-68
2021/11/27 07:38:26;;;;;;;10.93;6.47;;;;;;;10.60;71.83;98596.47;1791383;77;21082;-62
2021/11/27 07:40:52;;;;;;;11.15;6.87;;;;;;;10.66;71.66;98602.39;1792170;77;21055;-64
2021/11/27 07:43:19;;;;;;;12.50;7.03;;;;;;;10.73;71.55;98602.55;1780389;77;21056;-64
2021/11/27 07:45:53;;;;;;;10.72;6.97;;;;;;;10.76;71.48;98604.84;1773460;78;21042;-65
2021/11/27 07:48:41;;;;;;;11.97;7.50;;;;;;;10.76;71.47;98605.66;1701675;82;21054;-64
2021/11/27 07:51:26;;;;;;;14.33;8.75;;;;;;;10.73;71.54;98607.30;1686865;82;21580;-68
2021/11/27 07:53:54;;;;;;;12.63;7.35;;;;;;;10.70;71.63;98616.03;1745718;78;21102;-68
2021/11/27 07:56:21;;;;;;;12.23;7.28;;;;;;;10.72;71.51;98614.05;1789404;78;21541;-65
2021/11/27 07:58:47;;;;;;;12.47;7.75;;;;;;;10.76;71.37;98610.11;1791334;78;21947;-63
2021/11/27 08:01:14;;;;;;;13.30;7.70;;;;;;;10.81;71.36;98614.37;1775231;79;21038;-68
2021/11/27 08:03:41;;;;;;;12.33;7.75;;;;;;;10.85;71.39;98610.40;1754668;80;21043;-66
2021/11/27 08:06:08;;;;;;;12.43;8.25;;;;;;;10.85;71.37;98613.03;1775082;79;21043;-64
2021/11/27 08:08:36;;;;;;;14.63;8.78;;;;;;;10.88;71.39;98618.47;1752114;79;21007;-69
2021/11/27 08:11:04;;;;;;;13.45;8.75;;;;;;;10.87;71.44;98616.31;1779874;79;21603;-65
2021/11/27 08:13:31;;;;;;;14.15;7.65;;;;;;;10.90;71.39;98617.30;1776422;79;21081;-64
2021/11/27 08:15:58;;;;;;;13.10;7.53;;;;;;;10.94;71.10;98622.56;1754765;79;21138;-70
2021/11/27 08:18:26;;;;;;;14.53;8.38;;;;;;;11.01;71.02;98618.77;1777350;78;21145;-59
2021/11/27 08:20:54;;;;;;;13.28;8.08;;;;;;;11.10;70.82;98619.05;1778427;78;21070;-64
2021/11/27 08:23:20;;;;;;;11.38;8.63;;;;;;;11.15;70.58;98619.87;1778808;78;21897;-65
2021/11/27 08:25:47;;;;;;;13.40;8.00;;;;;;;11.15;70.61;98616.73;1785306;78;21078;-67
2021/11/27 08:28:14;;;;;;;14.07;8.33;;;;;;;11.15;70.57;98613.28;1781479;77;21054;-72
2021/11/27 08:30:41;;;;;;;16.27;8.90;;;;;;;11.17;70.27;98623.65;1779357;78;21106;-71
2021/11/27 08:33:07;;;;;;;19.07;9.48;;;;;;;11.21;70.35;98612.59;1780494;78;21054;-69
2021/11/27 08:35:34;;;;;;;16.17;8.85;;;;;;;11.32;69.99;98608.27;1776770;79;21498;-69
2021/11/27 08:38:01;;;;;;;14.87;9.28;;;;;;;11.41;69.59;98618.27;1775267;78;21068;-72
2021/11/27 08:40:28;;;;;;;12.95;8.03;;;;;;;11.45;69.50;98618.77;1754316;79;21103;-66
2021/11/27 08:42:56;;;;;;;15.80;8.60;;;;;;;11.47;69.23;98607.56;1779838;79;21031;-72
2021/11/27 08:45:23;;;;;;;12.75;8.83;;;;;;;11.49;68.91;98613.47;1782561;79;21050;-69
2021/11/27 08:47:49;;;;;;;12.55;7.47;;;;;;;11.50;69.09;98615.13;1765820;79;21117;-68
2021/11/27 08:50:16;;;;;;;12.75;7.05;;;;;;;11.56;68.68;98618.37;1783577;78;21078;-68
2021/11/27 08:52:42;;;;;;;14.87;8.55;;;;;;;11.68;68.56;98612.21;1752834;80;21795;-67
2021/11/27 08:55:09;;;;;;;13.38;9.50;;;;;;;11.77;67.64;98612.98;1722868;81;21626;-66
2021/11/27 08:57:36;;;;;;;12.75;8.73;;;;;;;11.78;67.91;98614.13;1728912;80;21471;-66
2021/11/27 09:00:05;;;;;;;11.97;7.15;;;;;;;11.81;67.91;98611.66;1732461;80;21137;-66
2021/11/27 09:02:32;;;;;;;13.70;7.87;;;;;;;11.84;67.49;98603.41;1766327;77;21058;-64
2021/11/27 09:04:58;;;;;;;12.47;8.00;;;;;;;11.87;66.79;98614.92;1774340;79;21113;-66
2021/11/27 09:07:25;;;;;;;12.73;7.92;;;;;;;11.89;66.07;98624.28;1790369;79;21058;-66
2021/11/27 09:09:51;;;;;;;12.85;8.60;;;;;;;11.97;65.93;98623.92;1786775;78;20979;-67
2021/11/27 09:12:20;;;;;;;14.13;8.03;;;;;;;11.99;65.80;98618.81;1789207;79;21129;-66
2021/11/27 09:14:49;;;;;;;17.27;9.03;;;;;;;11.96;66.01;98624.94;1789104;78;21035;-62
2021/11/27 09:17:18;;;;;;;14.25;8.35;;;;;;;11.93;65.61;98623.96;1791780;78;21066;-62
2021/11/27 09:19:45;;;;;;;12.35;7.22;;;;;;;11.86;65.61;98633.03;1791148;77;21082;-66
2021/11/27 09:22:13;;;;;;;12.13;7.28;;;;;;;11.80;65.74;98634.56;1787206;79;21046;-66
2021/11/27 09:24:39;;;;;;;13.10;8.28;;;;;;;11.77;65.76;98636.70;1785376;77;21119;-64
2021/11/27 09:27:08;;;;;;;14.53;7.58;;;;;;;11.81;65.70;98641.96;1786749;78;21031;-62
2021/11/27 09:29:38;;;;;;;14.90;6.87;;;;;;;11.89;65.59;98641.41;1793074;78;21553;-66
2021/11/27 09:32:06;;;;;;;12.18;7.58;;;;;;;11.94;64.94;98647.52;1790761;78;21066;-64
2021/11/27 09:34:34;;;;;;;10.10;6.87;;;;;;;11.92;64.90;98649.52;1792165;77;21015;-66
2021/11/27 09:37:02;;;;;;;14.07;7.70;;;;;;;11.92;64.88;98646.88;1768819;79;21080;-69
2021/11/27 09:39:29;;;;;;;11.22;7.05;;;;;;;11.92;64.36;98661.84;1788741;78;21081;-67
2021/11/27 09:41:57;;;;;;;13.10;7.30;;;;;;;11.90;64.59;98656.72;1789701;78;21579;-67
2021/11/27 09:44:24;;;;;;;13.22;7.80;;;;;;;11.89;64.55;98659.86;1798023;77;21069;-59
2021/11/27 09:46:51;;;;;;;12.43;7.22;;;;;;;11.88;64.77;98652.12;1785821;77;22503;-69
2021/11/27 09:49:22;;;;;;;11.00;6.87;;;;;;;11.93;64.65;98649.81;1783790;77;21742;-61
2021/11/27 09:51:52;;;;;;;11.83;6.78;;;;;;;12.04;64.08;98650.73;1789424;78;20976;-65
2021/11/27 09:54:19;;;;;;;9.68;6.50;;;;;;;12.12;63.63;98646.41;1781545;77;21063;-66
2021/11/27 09:56:47;;;;;;;9.88;6.62;;;;;;;12.13;63.61;98637.51;1789902;78;21354;-69
2021/11/27 09:59:15;;;;;;;11.53;7.15;;;;;;;12.16;63.48;98642.44;1788364;78;21031;-69
2021/11/27 10:01:45;;;;;;;10.23;6.90;;;;;;;12.19;63.45;98636.31;1789012;78;21101;-64
2021/11/27 10:04:13;;;;;;;12.10;7.08;;;;;;;12.24;63.40;98635.28;1795314;77;21911;-67
2021/11/27 10:06:44;;;;;;;14.65;6.65;;;;;;;12.29;61.76;98639.19;1785831;77;21054;-66
2021/11/27 10:09:14;;;;;;;10.15;6.05;;;;;;;12.27;61.96;98640.69;1779788;77;21074;-65
2021/11/27 10:11:42;;;;;;;13.15;7.10;;;;;;;12.27;61.74;98643.32;1789097;78;21043;-67
2021/11/27 10:14:11;;;;;;;11.28;6.65;;;;;;;12.25;61.78;98644.00;1792724;79;21035;-63
2021/11/27 10:17:01;;;;;;;10.85;6.10;;;;;;;12.29;61.43;98640.51;1782957;78;21102;-63
2021/11/27 10:19:44;;;;;;;10.65;6.05;;;;;;;12.36;60.92;98642.28;1778821;77;21026;-63
2021/11/27 10:22:21;;;;;;;9.85;6.17;;;;;;;12.39;60.82;98636.66;1793882;77;21058;-65
2021/11/27 10:24:50;;;;;;;11.97;6.50;;;;;;;12.37;60.60;98625.47;1759616;77;21098;-65
2021/11/27 10:27:21;;;;;;;13.30;6.87;;;;;;;12.33;60.56;98629.95;1789598;77;21121;-64
2021/11/27 10:30:09;;;;;;;9.50;5.83;;;;;;;12.31;60.90;98619.57;1766200;79;21074;-64
2021/11/27 10:32:40;;;;;;;12.30;6.67;;;;;;;12.35;61.06;98620.84;1791923;78;21082;-65
2021/11/27 10:35:11;;;;;;;9.63;5.58;;;;;;;12.43;61.31;98620.78;1784560;77;21503;-66
2021/11/27 10:37:44;;;;;;;10.20;6.30;;;;;;;12.50;60.26;98618.25;1783883;77;21653;-67
2021/11/27 10:40:21;;;;;;;9.23;5.40;;;;;;;12.57;60.44;98619.67;1773376;78;21566;-66
2021/11/27 10:42:55;;;;;;;11.55;6.87;;;;;;;12.62;60.35;98619.95;1774107;77;21108;-67
2021/11/27 10:45:33;;;;;;;9.90;6.53;;;;;;;12.66;59.87;98612.50;1783088;78;21053;-67
2021/11/27 10:48:22;;;;;;;10.78;5.72;;;;;;;12.67;59.75;98620.23;1789937;77;21082;-67
2021/11/27 10:50:59;;;;;;;9.75;5.55;;;;;;;12.68;59.77;98618.44;1771132;78;21053;-63
2021/11/27 10:53:33;;;;;;;9.60;6.25;;;;;;;12.66;59.72;98622.58;1791398;78;21115;-64
2021/11/27 10:56:08;;;;;;;8.25;5.15;;;;;;;12.70;59.35;98626.48;1786042;78;21128;-64
2021/11/27 10:59:06;;;;;;;11.00;6.40;;;;;;;12.79;59.09;98632.49;1772412;79;21125;-64
2021/11/27 11:01:34;;;;;;;10.32;6.12;;;;;;;12.85;59.04;98636.25;1791999;78;21083;-64
2021/11/27 11:04:16;;;;;;;10.65;4.95;;;;;;;12.86;58.60;98633.91;1787079;78;21106;-64
2021/11/27 11:06:44;;;;;;;8.38;5.33;;;;;;;12.86;58.57;98636.55;1788154;77;20998;-63
2021/11/27 11:09:12;;;;;;;10.28;6.12;;;;;;;12.91;58.66;98640.79;1783343;77;21131;-64
2021/11/27 11:11:40;;;;;;;9.18;5.67;;;;;;;12.96;58.76;98639.75;1792033;78;21049;-63
2021/11/27 11:14:30;;;;;;;12.88;5.72;;;;;;;13.05;58.94;98636.55;1726881;81;21059;-64
2021/11/27 11:16:58;;;;;;;9.93;5.95;;;;;;;13.15;58.81;98641.86;1729216;80;21079;-66
2021/11/27 11:19:25;;;;;;;11.65;5.83;;;;;;;13.26;58.19;98644.53;1715415;80;21126;-64
2021/11/27 11:22:12;;;;;;;10.75;5.92;;;;;;;13.32;58.22;98639.88;1727986;82;21080;-65
2021/11/27 11:24:44;;;;;;;11.28;7.00;;;;;;;13.37;57.88;98640.66;1729104;80;21074;-64
2021/11/27 11:27:11;;;;;;;10.95;6.40;;;;;;;13.45;58.10;98638.41;1711402;81;21078;-64
2021/11/27 11:29:50;;;;;;;9.35;6.05;;;;;;;13.53;57.59;98640.95;1723479;80;21133;-64
2021/11/27 11:32:22;;;;;;;9.60;6.00;;;;;;;13.60;57.86;98656.41;1709758;81;21064;-63
2021/11/27 11:34:51;;;;;;;11.57;6.30;;;;;;;13.71;57.45;98660.38;1729474;82;21070;-64
2021/11/27 11:37:17;;;;;;;10.25;6.25;;;;;;;13.79;56.60;98661.60;1786478;77;21062;-65
2021/11/27 11:39:47;;;;;;;10.08;5.97;;;;;;;13.85;56.62;98664.83;1786566;78;21151;-65
2021/11/27 11:42:14;;;;;;;10.03;6.10;;;;;;;13.92;56.26;98667.55;1785928;78;21065;-63
2021/11/27 11:44:41;;;;;;;11.50;5.75;;;;;;;13.99;55.97;98676.88;1762577;79;21247;-62
2021/11/27 11:47:10;;;;;;;8.93;5.50;;;;;;;14.03;55.76;98674.97;1786433;79;21083;-64
2021/11/27 11:49:37;;;;;;;9.83;5.70;;;;;;;14.06;55.44;98681.73;1783077;79;21047;-64
2021/11/27 11:52:30;;;;;;;9.53;5.08;;;;;;;14.11;55.70;98685.44;1776830;78;21027;-64
2021/11/27 11:55:01;;;;;;;8.15;4.62;;;;;;;14.17;55.10;98691.83;1777393;79;21170;-65